Latest Weather Observations for Mudgee

IDN60801

Issued at 3:32 pm EST Sunday 20 August 2017 (issued every 30 minutes, with the page automatically refreshed every 10 minutes)

About weather observations | Map of weather stations | Latest weather observations for NSW | Other Formats
Station Details ID: 062101 Name: MUDGEE AIRPORT AWS Lat: -32.56 Lon: 149.61 Height: 471.0 m
Data from the previous 72 hours. | See also: Recent months at Mudgee
Date/Time
EST
Temp
°C
App
Temp
°C
Dew
Point
°C
Rel
Hum
%
Delta-T
°C
Wind Press
QNH
hPa
Press
MSL
hPa
Rain since
9am
mm
Dir  Spd
km/h
Gust
km/h
Spd
kts
Gust
kts
20/03:30pm 14.2 9.3 -3.1 30 6.9 NW 13 20 7 11 1020.4 1020.8 0.0
20/03:00pm 14.3 10.2 -3.0 30 7.0 W 9 13 5 7 1020.7 1021.2 0.0
20/02:30pm 13.4 9.4 -2.5 33 6.4 SW 9 17 5 9 1021.0 1021.5 0.0
20/02:00pm 13.3 9.2 -3.0 32 6.5 SE 9 13 5 7 1021.4 1021.9 0.0
20/01:30pm 13.1 9.5 -2.0 35 6.2 WSW 7 20 4 11 1021.9 1022.3 0.0
20/01:00pm 12.5 7.7 -2.5 35 6.0 WNW 13 20 7 11 1022.2 1022.6 0.0
20/12:30pm 12.7 8.0 -1.6 37 5.9 W 13 17 7 9 1022.6 1023.1 0.0
20/12:00pm 11.6 7.6 -2.6 37 5.6 SSW 9 15 5 8 1022.9 1023.4 0.0
20/11:30am 10.9 6.8 -2.8 38 5.4 SSE 9 15 5 8 1023.4 1023.9 0.0
20/11:00am 10.4 6.8 -4.0 36 5.4 SSW 6 9 3 5 1024.1 1024.5 0.0
20/10:30am 9.2 5.6 -4.0 39 4.9 SW 6 9 3 5 1024.6 1025.1 0.0
20/10:00am 7.9 3.8 -3.3 45 4.2 S 9 13 5 7 1025.0 1025.5 0.0
20/09:30am 6.3 2.4 -1.3 58 2.9 S 9 13 5 7 1025.2 1025.7 0.0
20/09:00am 3.4 0.0 -0.4 76 1.4 SSE 7 9 4 5 1025.3 1025.8 0.0
20/08:30am 1.4 -2.4 -0.4 88 0.7 WSW 9 11 5 6 1025.2 1025.7 0.0
20/08:00am -0.4 -3.1 -2.1 88 0.6 NE 2 9 1 5 1025.0 1025.5 0.0
20/07:30am -2.7 -6.8 -3.4 95 0.1 NNE 9 11 5 6 1024.5 1025.0 0.0
20/07:00am -4.3 -8.6 -4.7 97 0.0 NE 9 13 5 7 1024.2 1024.7 0.0
20/06:30am -5.2 -7.9 -6.0 94 0.0 CALM 0 0 0 0 1024.0 1024.4 0.0
20/06:00am -5.2 -8.7 -6.2 93 0.1 SSE 4 9 2 5 1023.7 1024.2 0.0
20/05:30am -5.0 -10.2 -5.8 94 0.0 NE 13 15 7 8 1023.4 1023.9 0.0
20/05:00am -5.2 -10.0 -6.2 93 0.1 NNE 11 15 6 8 1023.3 1023.8 0.0
20/04:30am -3.4 -7.6 -4.2 94 0.1 NE 9 13 5 7 1023.0 1023.5 0.0
20/04:00am -3.1 -7.6 -3.5 97 0.0 NE 11 13 6 7 1023.0 1023.5 0.0
20/03:30am -3.6 -8.2 -4.3 95 0.1 NE 11 13 6 7 1022.7 1023.2 0.0
20/03:00am -2.8 -7.0 -3.6 94 0.1 NE 9 13 5 7 1022.7 1023.2 0.0
20/02:30am -2.5 -7.1 -4.2 88 0.4 NNE 11 11 6 6 1022.8 1023.3 0.0
20/02:00am -1.4 -4.3 -3.9 83 0.8 N 2 9 1 5 1022.8 1023.3 0.0
20/01:30am 0.1 -3.9 -2.6 82 1.0 NE 9 11 5 6 1022.8 1023.3 0.0
20/01:00am 1.0 -2.5 -2.6 77 1.3 S 6 9 3 5 1022.8 1023.3 0.0
20/12:30am 1.5 -2.9 -2.6 74 1.4 WSW 11 13 6 7 1022.8 1023.3 0.0
20/12:00am 3.4 -0.1 -1.7 69 1.9 W 7 11 4 6 1023.0 1023.5 0.0
 
Date/Time
EST
Temp
°C
App
Temp
°C
Dew
Point
°C
Rel
Hum
%
Delta-T
°C
Wind Press
QNH
hPa
Press
MSL
hPa
Rain since
9am
mm
Dir  Spd
km/h
Gust
km/h
Spd
kts
Gust
kts
19/11:30pm 4.9 2.5 -0.1 70 2.0 SE 2 9 1 5 1023.2 1023.7 0.0
19/11:00pm 4.5 2.0 -0.9 68 2.0 SSE 2 7 1 4 1023.0 1023.5 0.0
19/10:30pm 4.7 2.2 -0.9 67 2.1 SSE 2 7 1 4 1023.0 1023.5 0.0
19/10:00pm 4.0 1.4 -1.4 68 2.0 W 2 9 1 5 1023.0 1023.5 0.0
19/09:30pm 4.9 1.4 -1.3 64 2.4 SSW 7 13 4 7 1023.1 1023.6 0.0
19/09:00pm 5.8 1.6 -0.7 63 2.5 S 11 15 6 8 1023.3 1023.8 0.0
19/08:30pm 4.8 0.9 -1.6 63 2.4 SSW 9 11 5 6 1023.0 1023.5 0.0
19/08:00pm 5.1 0.4 -1.6 62 2.5 SSW 13 17 7 9 1022.6 1023.1 0.0
19/07:30pm 6.2 1.5 -1.7 57 3.0 S 13 15 7 8 1022.5 1023.0 0.0
19/07:00pm 5.7 1.0 -1.9 58 2.9 WSW 13 17 7 9 1022.1 1022.5 0.0
19/06:30pm 7.0 3.0 -2.4 51 3.6 SSW 9 11 5 6 1021.7 1022.1 0.0
19/06:00pm 7.8 2.7 -2.2 49 3.8 SSW 15 20 8 11 1021.2 1021.7 0.0
19/05:30pm 8.9 3.3 -3.0 43 4.5 SSW 17 22 9 12 1020.9 1021.4 0.0
19/05:00pm 10.1 3.2 -2.5 41 4.9 SW 24 32 13 17 1020.6 1021.1 0.0
19/04:30pm 10.2 2.5 -2.8 40 5.0 SSW 28 39 15 21 1020.1 1020.5 0.0
19/04:00pm 9.4 1.3 -3.2 41 4.8 SSW 30 39 16 21 1019.9 1020.3 0.0
19/03:30pm 11.2 4.4 -2.2 39 5.3 SSW 24 33 13 18 1019.6 1020.0 0.0
19/03:00pm 11.2 3.2 -2.2 39 5.3 SW 30 41 16 22 1019.5 1019.9 0.0
19/02:30pm 11.0 2.6 -2.8 38 5.4 SW 32 43 17 23 1019.0 1019.5 0.0
19/02:00pm 11.5 3.5 -2.3 38 5.5 SW 30 39 16 21 1019.2 1019.7 0.0
19/01:30pm 11.3 2.9 -2.8 37 5.5 SW 32 52 17 28 1019.2 1019.7 0.0
19/01:29pm 11.6 3.7 -1.9 39 5.4 SW 30 52 16 28 1019.2 1019.7 0.0
19/01:00pm 11.4 3.3 -3.1 36 5.7 SW 30 44 16 24 1019.0 1019.5 0.0
19/12:30pm 10.9 3.2 -2.8 38 5.4 SSW 28 37 15 20 1019.2 1019.7 0.0
19/12:00pm 11.4 4.4 -0.7 43 5.0 SW 26 33 14 18 1019.1 1019.6 0.0
19/11:30am 10.6 4.0 -0.5 46 4.6 WSW 24 32 13 17 1019.6 1020.0 0.0
19/11:00am 10.5 3.4 -0.9 45 4.6 SW 26 37 14 20 1019.8 1020.2 0.0
19/10:30am 9.6 2.5 -1.1 47 4.3 SW 26 37 14 20 1019.8 1020.2 0.0
19/10:00am 9.1 5.3 -0.5 51 3.9 NW 9 22 5 12 1019.9 1020.3 0.0
19/09:30am 8.0 3.5 -0.5 55 3.4 SW 13 26 7 14 1019.8 1020.2 0.0
19/09:00am 7.7 4.0 0.2 59 3.0 WNW 9 20 5 11 1019.6 1020.0 0.0
19/08:30am 6.8 2.3 -0.2 61 2.8 WSW 13 19 7 10 1019.7 1020.1 0.0
19/08:00am 6.3 1.1 0.0 64 2.5 WNW 17 24 9 13 1019.5 1019.9 0.0
19/07:30am 5.9 1.4 0.0 66 2.3 N 13 20 7 11 1019.0 1019.5 0.0
19/07:00am 5.0 1.4 0.4 72 1.8 N 9 13 5 7 1018.8 1019.3 0.0
19/06:30am 4.5 0.4 -0.5 70 1.9 W 11 20 6 11 1018.6 1019.0 0.0
19/06:00am 4.8 -0.5 -0.6 68 2.1 SW 17 33 9 18 1018.3 1018.7 0.0
19/05:30am 4.9 0.0 -0.3 69 2.0 SW 15 24 8 13 1018.1 1018.5 0.0
19/05:00am 4.9 0.5 0.1 71 1.9 SW 13 22 7 12 1017.8 1018.2 0.0
19/04:30am 5.2 -0.4 0.2 70 2.0 SW 19 32 10 17 1017.6 1018.0 0.0
19/04:00am 5.2 -0.9 0.2 70 2.0 SW 22 41 12 22 1017.4 1017.8 0.0
19/03:30am 4.9 1.2 -0.1 70 2.0 SW 9 17 5 9 1017.3 1017.7 0.0
19/03:00am 5.5 -1.0 0.1 68 2.1 SW 24 39 13 21 1017.2 1017.6 0.0
19/02:30am 5.9 -0.9 0.7 69 2.1 WSW 26 44 14 24 1017.3 1017.7 0.0
19/02:00am 6.1 -1.5 0.4 67 2.3 WSW 30 39 16 21 1017.4 1017.8 0.0
19/01:33am 6.6 -1.4 0.5 65 2.5 WSW 32 50 17 27 1017.6 1018.0 0.0
19/01:30am 6.7 -1.9 0.4 64 2.5 WSW 35 50 19 27 1017.6 1018.0 0.0
19/01:00am 6.7 -1.5 0.2 63 2.6 WSW 33 43 18 23 1017.6 1018.0 0.0
19/12:32am 6.9 -0.7 0.8 65 2.5 WSW 30 50 16 27 1017.7 1018.1 0.0
19/12:30am 6.9 -0.3 0.8 65 2.5 WSW 28 43 15 23 1017.7 1018.1 0.0
19/12:00am 7.0 1.0 0.9 65 2.5 WSW 22 35 12 19 1017.7 1018.1 0.0
 
Date/Time
EST
Temp
°C
App
Temp
°C
Dew
Point
°C
Rel
Hum
%
Delta-T
°C
Wind Press
QNH
hPa
Press
MSL
hPa
Rain since
9am
mm
Dir  Spd
km/h
Gust
km/h
Spd
kts
Gust
kts
18/11:30pm 7.0 0.5 0.5 63 2.6 WSW 24 33 13 18 1017.9 1018.3 0.0
18/11:00pm 7.4 -2.0 -0.1 59 3.0 WSW 39 57 21 31 1017.8 1018.2 0.0
18/10:30pm 7.9 -2.3 -0.6 55 3.4 WSW 43 69 23 37 1018.0 1018.4 0.0
18/10:25pm 8.0 -1.5 -0.5 55 3.4 WSW 39 69 21 37 1017.8 1018.2 0.0
18/10:09pm 7.8 0.1 -0.2 57 3.2 WSW 30 48 16 26 1018.0 1018.4 0.0
18/10:00pm 8.4 0.4 0.1 56 3.4 WSW 32 46 17 25 1018.0 1018.4 0.0
18/09:40pm 8.6 0.9 0.1 55 3.5 WSW 30 50 16 27 1017.7 1018.1 0.0
18/09:30pm 8.7 0.1 -0.1 54 3.6 WSW 35 50 19 27 1017.7 1018.1 0.0
18/09:03pm 8.7 1.4 0.2 55 3.5 WSW 28 46 15 25 1017.6 1018.0 0.0
18/09:00pm 8.4 1.5 0.1 56 3.4 WSW 26 37 14 20 1017.6 1018.0 0.0
18/08:30pm 8.6 2.2 0.8 58 3.2 WSW 24 35 13 19 1017.6 1018.0 0.0
18/08:00pm 8.7 1.2 0.9 58 3.2 W 30 43 16 23 1017.3 1017.7 0.0
18/07:30pm 9.0 1.0 0.5 55 3.5 W 32 43 17 23 1016.9 1017.3 0.0
18/07:13pm 8.7 0.7 0.2 55 3.5 W 32 50 17 27 1016.7 1017.1 0.0
18/07:00pm 8.6 1.0 0.8 58 3.2 W 30 43 16 23 1016.7 1017.1 0.0
18/06:30pm 7.6 2.2 1.5 65 2.6 WSW 19 28 10 15 1016.5 1016.9 0.0
18/06:00pm 8.0 1.5 2.5 68 2.4 SW 26 35 14 19 1016.3 1016.7 0.0
18/05:30pm 8.7 1.2 1.1 59 3.2 SW 30 43 16 23 1015.8 1016.2 0.0
18/05:00pm 9.3 3.0 1.5 58 3.3 W 24 30 13 16 1015.2 1015.6 0.0
18/04:54pm 9.5 2.5 1.7 58 3.3 W 28 46 15 25 1015.2 1015.6 0.0
18/04:30pm 10.5 1.9 0.3 49 4.3 W 35 44 19 24 1014.5 1014.9 0.0
18/04:14pm 10.9 2.6 -0.2 46 4.6 W 33 52 18 28 1014.2 1014.6 0.0
18/04:00pm 11.7 2.0 0.2 45 4.9 W 41 56 22 30 1014.1 1014.5 0.0
18/03:31pm 11.4 1.1 -0.7 43 5.0 W 43 61 23 33 1014.1 1014.5 0.0
18/03:30pm 11.5 1.1 -0.6 43 5.0 W 44 61 24 33 1014.0 1014.4 0.0
18/03:00pm 12.7 2.5 0.8 44 5.1 W 44 70 24 38 1013.9 1014.3 0.0
18/02:33pm 11.4 2.5 0.8 48 4.5 W 37 56 20 30 1014.0 1014.4 0.0
18/02:30pm 11.6 2.0 1.0 48 4.6 W 41 56 22 30 1013.9 1014.3 0.0
18/02:00pm 11.0 1.8 1.0 50 4.3 W 39 72 21 39 1013.7 1014.1 0.0
18/01:51pm 11.2 1.9 0.9 49 4.4 W 39 72 21 39 1013.8 1014.2 0.0
18/01:43pm 10.6 2.8 1.7 54 3.9 W 32 54 17 29 1013.9 1014.3 0.0
18/01:30pm 10.3 1.6 1.9 56 3.6 W 37 50 20 27 1014.0 1014.4 0.0
18/01:00pm 10.0 0.0 1.9 57 3.5 W 44 69 24 37 1014.0 1014.4 0.0
18/12:40pm 10.0 1.8 2.6 60 3.3 W 35 69 19 37 1014.2 1014.6 0.0
18/12:30pm 9.5 1.2 2.1 60 3.2 WSW 35 50 19 27 1014.4 1014.8 0.0
18/12:00pm 8.4 0.5 2.4 66 2.6 W 33 52 18 28 1014.7 1015.1 0.0
18/11:31am 10.5 3.2 2.6 58 3.5 W 30 65 16 35 1014.7 1015.1 0.0
18/11:30am 10.2 3.3 2.8 60 3.3 W 28 46 15 25 1014.7 1015.1 0.0
18/11:00am 9.9 0.1 2.5 60 3.2 W 43 57 23 31 1015.2 1015.6 0.0
18/10:30am 8.3 0.5 5.1 80 1.5 W 35 56 19 30 1015.3 1015.7 0.0
18/10:09am 10.1 2.2 2.2 58 3.4 W 33 54 18 29 1015.0 1015.3 0.0
18/10:00am 9.4 1.7 3.6 67 2.6 W 33 43 18 23 1015.0 1015.3 0.0
18/09:30am 9.8 1.5 1.9 58 3.4 W 35 54 19 29 1014.9 1015.2 0.0
18/09:12am 9.2 1.2 1.4 58 3.3 WSW 33 52 18 28 1014.9 1015.2 0.0
18/09:00am 9.0 0.5 1.0 57 3.4 WSW 35 48 19 26 1014.9 1015.2 0.2
18/08:30am 8.9 0.5 1.8 61 3.0 W 35 57 19 31 1014.4 1014.8 0.2
18/08:00am 8.6 1.0 3.0 68 2.5 W 32 41 17 22 1014.0 1014.4 0.2
18/07:30am 8.3 0.6 3.4 71 2.2 W 33 43 18 23 1013.7 1014.1 0.2
18/07:00am 8.0 1.2 3.1 71 2.1 W 28 37 15 20 1013.3 1013.6 0.2
18/06:30am 7.9 0.2 3.4 73 2.0 WSW 33 48 18 26 1013.0 1013.3 0.2
18/06:00am 7.7 1.0 3.6 75 1.8 W 28 41 15 22 1012.7 1013.0 0.2
18/05:30am 7.9 2.0 3.9 76 1.8 WSW 24 41 13 22 1012.5 1012.9 0.2
18/05:00am 7.7 -0.2 4.3 79 1.5 WSW 35 54 19 29 1012.4 1012.8 0.2
18/04:41am 8.4 0.4 4.0 74 2.0 W 35 54 19 29 1012.3 1012.7 0.0
18/04:30am 8.9 1.8 3.5 69 2.4 WSW 30 41 16 22 1011.9 1012.3 0.0
18/04:00am 10.8 3.2 0.8 50 4.3 W 30 37 16 20 1011.1 1011.4 0.0
18/03:45am 10.8 4.4 0.8 50 4.2 W 24 39 13 21 1011.0 1011.3 0.0
18/03:30am 8.5 4.4 0.0 55 3.5 WNW 11 17 6 9 1011.1 1011.4 0.0
18/03:00am 8.6 3.7 -0.4 53 3.6 NW 15 22 8 12 1010.9 1011.2 0.0
18/02:30am 8.8 3.6 -0.2 53 3.7 NNW 17 20 9 11 1011.0 1011.3 0.0
18/02:00am 8.6 3.3 -0.4 53 3.6 NNW 17 19 9 10 1011.2 1011.5 0.0
18/01:30am 9.3 4.4 -0.3 51 3.9 NNW 15 19 8 10 1011.4 1011.7 0.0
18/01:00am 10.1 4.5 -0.1 49 4.2 NNW 19 24 10 13 1011.6 1012.0 0.0
18/12:30am 10.5 5.3 0.3 49 4.3 NNW 17 20 9 11 1011.7 1012.1 0.0
18/12:00am 9.4 5.0 0.3 53 3.8 NNW 13 17 7 9 1011.9 1012.3 0.0
 
Date/Time
EST
Temp
°C
App
Temp
°C
Dew
Point
°C
Rel
Hum
%
Delta-T
°C
Wind Press
QNH
hPa
Press
MSL
hPa
Rain since
9am
mm
Dir  Spd
km/h
Gust
km/h
Spd
kts
Gust
kts
17/11:30pm 9.2 4.8 0.4 54 3.6 N 13 15 7 8 1011.9 1012.3 0.0
17/11:00pm 9.8 5.8 0.4 52 3.9 NNW 11 13 6 7 1012.0 1012.4 0.0
17/10:30pm 11.0 6.5 -0.2 46 4.7 NNW 13 17 7 9 1012.1 1012.5 0.0
17/10:00pm 11.2 7.1 0.0 46 4.7 NW 11 15 6 8 1012.1 1012.5 0.0
17/09:30pm 11.1 5.9 -0.1 46 4.7 NNW 17 20 9 11 1012.0 1012.4 0.0
17/09:00pm 10.6 6.2 0.3 49 4.3 NNW 13 17 7 9 1012.0 1012.4 0.0
17/08:30pm 9.2 4.7 -0.4 51 3.9 N 13 15 7 8 1011.9 1012.3 0.0
17/08:00pm 9.8 5.6 -1.0 47 4.4 NNW 11 15 6 8 1011.8 1012.2 0.0
17/07:30pm 11.0 6.1 -0.5 45 4.8 NNW 15 19 8 10 1011.6 1012.0 0.0
17/07:00pm 11.6 6.7 -0.2 44 4.9 NNW 15 19 8 10 1011.3 1011.6 0.0
17/06:30pm 11.6 7.4 -1.2 41 5.2 NNW 11 17 6 9 1011.0 1011.3 0.0
17/06:00pm 13.2 8.3 -0.8 38 5.9 NW 15 20 8 11 1010.7 1011.0 0.0
17/05:30pm 14.9 8.2 -0.8 34 6.7 NW 24 32 13 17 1010.5 1010.8 0.0
17/05:00pm 16.1 7.9 -1.0 31 7.4 NW 32 41 17 22 1010.1 1010.5 0.0
17/04:30pm 16.8 8.7 -0.4 31 7.5 WNW 32 41 17 22 1010.0 1010.4 0.0
17/04:00pm 17.3 9.3 0.5 32 7.5 WNW 32 39 17 21 1009.8 1010.2 0.0

Other Formats:

Comma delimited format used in spreadsheet applications
http://www.bom.gov.au/fwo/IDN60801/IDN60801.94727.axf

JavaScript Object Notation format (JSON) in row-major order
http://www.bom.gov.au/fwo/IDN60801/IDN60801.94727.json